Cody Depay

Olheiro - Twente
22 Fev 2027
Segunda-feira
Processo

Personalidade

Adaptabilidade (5) Ambição (5) Controvérsia (1) Lealdade (2) Pressão (13) Profissionalismo (13) Espírito Esportivo (20) Temperamento (9)

Perfil

Estilo de Treinamento Democrático
Licença Continental B
Determinação 5
Gestão de Pessoas 14
Motivação 12
Disciplina 6
Satisfação no Trabalho
60%
Fadiga
0%
Função Olheiro
Salário 79.9K p/s
Contrato 14.03.2027

Desempenho

Comportamento Bom
Eficácia do Treinamento
28%
Desenvolvimento do Jogador
70%
Prevenção de Lesões
45%
Implementação Tática
60%

Eventos Recentes

Negociação de contrato iniciada agora
Participou de uma reunião de recrutamento agora
Negociação de contrato iniciada agora
Negociação de contrato iniciada agora
Negociação de contrato iniciada agora
Negociação de contrato iniciada agora
Negociação de contrato iniciada 7d atrás
Negociação de contrato iniciada 7d atrás

Monitorando agora

123
Jogador Clube Status Habilidade Confiança Observado Última observação Último voto
Jacques Siwe Rubin Ativo 115 / 113 40% 1 30.12.2026 -
Bojan Radulović Huddersfield Town Ativo 108 / 111 40% 1 30.12.2026 -
Zayd El Kandoussi Lokeren Ativo 110 / 101 40% 2 29.12.2026 -
Matheus Nascimento Le Havre AC Ativo 111 / 117 40% 1 29.12.2026 -
Brian Gutiérrez Guadalajara Ativo 141 / 123 40% 2 27.12.2026 -
Sami Ouaissa NEC Ativo 134 / 129 40% 1 27.12.2026 -
Kein Sato FC Tokyo Ativo 146 / 131 40% 1 27.12.2026 -
Negueba Mirassol Ativo 122 / 114 40% 1 25.12.2026 -
Jonathan Afolabi KV Kortrijk Ativo 101 / 95 40% 1 25.12.2026 -
Ali Soliman Masr El Makasa Ativo 126 / 130 40% 3 24.12.2026 -
Robert FC Copenhagen Ativo 142 / 134 40% 1 24.12.2026 -
Myron van Brederode KV Mechelen Ativo 109 / 122 40% 2 23.12.2026 -
Luka Kulenović Heracles Ativo 103 / 115 40% 4 23.12.2026 -
Alex Luna Instituto Ativo 143 / 128 40% 4 23.12.2026 -
Oswin Appollis Orlando Pirates Ativo 112 / 118 40% 1 23.12.2026 -
Allahyar Sayyadmanesh Lech Ativo 112 / 118 40% 2 22.12.2026 -
Killian Sardella Anderlecht Ativo 114 / 125 40% 1 22.12.2026 -
Alan Lescano Argentinos Juniors Ativo 133 / 128 40% 2 18.12.2026 -
Isa Sakamoto Westerlo Ativo 107 / 118 40% 6 18.12.2026 -
Vinicinho Bragantino Ativo 137 / 139 40% 1 16.12.2026 -
Alexis Cuello San Lorenzo Ativo 142 / 122 40% 2 15.12.2026 -
Nicolas Binder Cambuur Ativo 117 / 114 40% 2 15.12.2026 -
Duk Atlas Ativo 102 / 122 40% 1 14.12.2026 -
Alejandro Piedrahita Deportivo Pereira Ativo 109 / 129 40% 5 13.12.2026 -
Rocco Vata Watford Ativo 120 / 125 40% 1 13.12.2026 -
Diego Lainez Tigres Ativo 112 / 133 40% 1 13.12.2026 -
Carlos Palacios Boca Juniors Ativo 113 / 137 40% 1 11.12.2026 -
Ignacio Russo Tigre Ativo 117 / 118 40% 2 10.12.2026 -
Nathan Fogaça Fortaleza Ativo 140 / 131 40% 1 10.12.2026 -
Tamerlan Musaev CSKA Moscow Ativo 131 / 116 40% 2 06.12.2026 -
Marcos Paulo Juventude Ativo 130 / 110 40% 1 06.12.2026 -
Matteo Dams Club Brugge Ativo 130 / 128 40% 2 05.12.2026 -
Serginho Al Wasl Ativo 131 / 118 40% 2 04.12.2026 -
César Huerta Pumas UNAM Ativo 125 / 131 40% 2 04.12.2026 -
Zé Leite Oliveirense Ativo 129 / 122 40% 1 01.12.2026 -
Assad Al Hamlawi Universitatea Craiova Ativo 129 / 111 40% 1 30.11.2026 -
Niall Ennis Blackpool Ativo 100 / 103 40% 1 30.11.2026 -
Manfred Ugalde Spartak Moscow Ativo 134 / 121 40% 1 28.11.2026 -
Angelo Gattermayer Wolfsberger AC Ativo 127 / 118 40% 1 28.11.2026 -
Erik Lira Cruz Azul Ativo 126 / 134 40% 1 25.11.2026 -
Ozziel Herrera Tigres Ativo 142 / 121 40% 1 24.11.2026 -
Florián Monzón Atlas Ativo 122 / 116 40% 2 22.11.2026 -
Evidence Makgopa Orlando Pirates Ativo 133 / 121 40% 1 20.11.2026 -
Juan Cruz de los Santos Nacional Ativo 107 / 137 40% 1 18.11.2026 -
Yorbe Vertessen Red Bull Salzburg Ativo 119 / 119 40% 1 18.11.2026 -
Nacer Tielemans Mouscron Ativo 123 / 138 40% 4 16.11.2026 -
Dirk Proper Heerenveen Ativo 128 / 127 40% 1 16.11.2026 -
Victor Lind Hammarby Ativo 120 / 139 40% 1 15.11.2026 -
Yegor Golenkov Rostov Ativo 121 / 118 40% 2 13.11.2026 -
Thom van Bergen Groningen Ativo 109 / 121 40% 1 13.11.2026 -
Jalen Hawkins ADO Den Haag Ativo 123 / 115 40% 2 10.11.2026 -
Adalberto Carrasquilla Pumas UNAM Ativo 142 / 118 40% 2 09.11.2026 -
Ştefan Baiaram Universitatea Craiova Ativo 115 / 130 40% 1 07.11.2026 -
Daniel Karlsbakk Sarpsborg 08 Ativo 117 / 126 40% 1 07.11.2026 -
Rodrigo Huescas FC Copenhagen Ativo 139 / 133 40% 1 03.11.2026 -
Brayan León Mamelodi Sundowns Ativo 106 / 121 40% 1 01.11.2026 -
Conrad Wallem Valerenga Ativo 127 / 119 40% 1 31.10.2026 -
Emil Ceïde Rosenborg Ativo 123 / 117 40% 1 28.10.2026 -
Favio Cabral Mitre Ativo 102 / 125 40% 1 27.10.2026 -
Kevin Kelsy Portland Timbers Ativo 115 / 118 40% 3 26.10.2026 -
Fernand Gouré Westerlo Ativo 110 / 114 40% 1 26.10.2026 -
Efraín Álvarez Guadalajara Ativo 127 / 124 40% 3 25.10.2026 -
Ayoub Jabbari FC Cincinnati Ativo 112 / 109 40% 2 21.10.2026 -
Dominik Takáč Slovan Bratislava Ativo 133 / 125 40% 2 17.10.2026 -
Ľubomír Belko Viking Ativo 119 / 135 40% 2 16.10.2026 -
Iñaki Peña Panathinaikos Ativo 151 / 152 40% 2 16.10.2026 -
Asahi Uenaka Gamba Osaka Ativo 116 / 128 40% 1 14.10.2026 -
Keisuke Osako Sanfrecce Hiroshima Ativo 129 / 142 40% 3 13.10.2026 -
Axel Alderweireld KV Oostende Ativo 133 / 133 40% 2 13.10.2026 -
Lazar Carević Famalicao Ativo 119 / 123 40% 2 08.10.2026 -
Manuel Roffo Cerro Porteno Ativo 116 / 116 40% 2 08.10.2026 -
Dmytro Riznyk Shakhtar Ativo 157 / 146 40% 4 07.10.2026 -
Svetoslav Vutsov Levski Ativo 141 / 120 40% 3 07.10.2026 -
Dom Ballard Leyton Orient Ativo 127 / 126 40% 1 06.10.2026 -
Jefry Zapata Once Caldas Ativo 110 / 108 40% 1 06.10.2026 -
Marvin Keller Young Boys Ativo 128 / 141 40% 1 04.10.2026 -
Oufa Shobeir ES Setif Ativo 120 / 129 40% 1 04.10.2026 -
Santiago Apa All Boys Ativo 99 / 120 40% 1 02.10.2026 -
Enzo González Defensores Ativo 96 / 95 40% 1 02.10.2026 -
Sam Tickle Wigan Athletic Ativo 134 / 132 40% 1 30.09.2026 -
Franco Fagúndez Estudiantes Ativo 127 / 112 40% 1 28.09.2026 -
Brandon Vázquez Austin FC Ativo 110 / 121 40% 1 28.09.2026 -
Jonathan Fischer FC Metz Ativo 120 / 133 40% 1 28.09.2026 -
Bernardo Fontes Braga Ativo 134 / 133 40% 3 27.09.2026 -
Lorenzo Palmisani Frosinone Ativo 111 / 133 40% 1 24.09.2026 -
Rome-Jayden Owusu-Oduro AZ Ativo 134 / 130 40% 4 23.09.2026 -
Tristan Degreef Anderlecht Ativo 130 / 128 40% 2 22.09.2026 -
Valdemar Byskov FC Midtjylland Ativo 113 / 129 40% 1 22.09.2026 -
Cundo Leicester City Ativo 131 / 131 40% 1 20.09.2026 -
Omar Campos Cruz Azul Ativo 125 / 113 40% 1 20.09.2026 -
Dinko Horkaš Al Wasl Ativo 145 / 127 40% 4 18.09.2026 -
Halam Loboa Independiente Medellin Ativo 102 / 121 40% 2 16.09.2026 -
Emerson Batalla Atletico Bucaramanga Ativo 112 / 130 40% 1 16.09.2026 -
Facundo Zabala Independiente Ativo 134 / 132 40% 1 16.09.2026 -
Tibe De Vlieger KAA Gent Ativo 95 / 118 40% 1 16.09.2026 -
Ignacio Perruzzi San Lorenzo Ativo 116 / 131 40% 1 15.09.2026 -
Asanele Bonani Chippa United Ativo 91 / 91 40% 1 13.09.2026 -
Dries Fellaini KV Oostende Ativo 122 / 127 40% 1 13.09.2026 -
Chris Brady Chicago Fire Ativo 141 / 121 40% 2 11.09.2026 -
Anthony Racioppi Sion Ativo 117 / 121 40% 1 10.09.2026 -
Dylan Ourega Westerlo Ativo 109 / 119 40% 2 09.09.2026 -
Kévin Denkey FC Cincinnati Ativo 123 / 129 40% 1 09.09.2026 -
Pascal Loretz Luzern Ativo 121 / 116 40% 1 08.09.2026 -
Tomoki Hayakawa Feyenoord Ativo 145 / 140 40% 1 07.09.2026 -
Elijah Dijkstra Feyenoord Ativo 115 / 130 40% 1 06.09.2026 -
Othmane Maamma Watford Ativo 116 / 130 40% 1 06.09.2026 -
Chris Lokesa Waasland-Beveren Ativo 113 / 119 40% 2 04.09.2026 -
Facundo Di Biasi Gimnasia La Plata Ativo 125 / 111 40% 1 04.09.2026 -
Relebohile Mofokeng Orlando Pirates Ativo 129 / 113 40% 1 02.09.2026 -
Reda Laalaoui Westerlo Ativo 115 / 114 40% 1 02.09.2026 -
Radek Vítek Middlesbrough Ativo 129 / 129 40% 1 01.09.2026 -
Mateusz Kochalski Qarabag Ativo 123 / 127 40% 3 29.08.2026 -
Gonzalo Crettaz NEC Ativo 115 / 132 40% 1 29.08.2026 -
Enzo Geerts Westerlo Ativo 99 / 104 40% 1 25.08.2026 -
Mario Stroeykens Anderlecht Ativo 120 / 131 40% 1 24.08.2026 -
Sergio Quintero La Equidad Ativo 132 / 133 40% 1 24.08.2026 -
Beau Reus Waasland-Beveren Ativo 110 / 124 40% 2 23.08.2026 -
Santiago Sosa Yung Defensa y Justicia Ativo 98 / 126 40% 1 19.08.2026 -
Lucas Agazzi Defensor Sporting Ativo 103 / 132 40% 1 17.08.2026 -
Matt Freese New York City Ativo 138 / 131 40% 1 15.08.2026 -
Kazuki Fujita Avispa Fukuoka Ativo 115 / 119 40% 1 10.08.2026 -
Samuel Soares Benfica Ativo 118 / 126 40% 1 04.08.2026 -
Ryan Thomas Zwolle Ativo 108 / 109 55% 1 03.08.2026 -